• Join FlightAware (Why Join?)
  • Login
  • US Flag 
12:36PM EDT


 

Airport Tracker/Info


-or-


 

Live Flight TrackerFlight Track Log ✈ CTL13 ✈ 07-May-2013 ✈ KMDW - KGRR

Flight Track Log - Related Links

Times and Time Zones

All times are in EDT time to prevent confusion due to time zone crossing. See the CTL13 flight status page for this flight to view local times or setup timezone preferences in your user account.

Time Position Orientation Groundspeed Altitude Reporting Facility
EDT Latitude Longitude Course Direction KTS MPH feet Rate Location/Type
11:14PM 41.8000 -87.7000 93° East 117 135 2,300  Level Chicago TRACON
11:15PM 41.8000 -87.6500 90° East 139 160 3,000 300 Climbing Chicago TRACON
11:16PM 41.8000 -87.5833 90° East 170 196 3,000 180 Level Chicago TRACON
11:17PM 41.8000 -87.5333 90° East 164 189 3,400 780 Climbing Chicago TRACON
11:18PM 41.8000 -87.4833 90° East 130 150 4,600 780 Climbing Chicago TRACON
11:19PM 41.7802 -87.3976 93° East  Level FlightAware Approximate
11:19PM 41.8000 -87.4333 90° East 150 173 5,000  Level Chicago TRACON
11:20PM 41.7856 -87.3681 107° East 149 171 5,000  Level Chicago Center
11:21PM 41.7703 -87.3033 108° East 173 199 5,100 480 Climbing Chicago Center
11:22PM 41.7575 -87.2519 108° East 152 175 6,000 420 Climbing Chicago Center
11:23PM 41.7472 -87.1800 101° East 164 189 6,000  Level Chicago Center
11:24PM 41.7531 -87.1147 83° East 175 201 6,100  Climbing Chicago Center
11:25PM 41.7764 -87.0625 59° Northeast 179 206 6,100 -60 Level Chicago Center
11:26PM 41.8117 -87.0194 42° Northeast 173 199 6,000 120 Descending Chicago Center
11:27PM 41.8447 -86.9728 46° Northeast 174 200 6,400 480 Climbing Chicago Center
11:28PM 41.8719 -86.9311 49° Northeast 156 180 7,000 240 Climbing Chicago Center
11:29PM 41.9033 -86.8883 45° Northeast 161 185 7,000  Level Chicago Center
11:30PM 41.9353 -86.8444 46° Northeast 164 189 7,000  Level Chicago Center
11:31PM 41.9650 -86.8028 46° Northeast 158 182 7,000  Level Chicago Center
11:32PM 42.0036 -86.7544 43° Northeast 160 184 7,000  Level Chicago Center
11:33PM 42.0292 -86.7192 46° Northeast 160 184 7,000  Level Chicago Center
11:34PM 42.0581 -86.6789 46° Northeast 153 176 7,000  Level Chicago Center
11:35PM 42.0950 -86.6283 45° Northeast 156 180 7,000  Level Chicago Center
11:36PM 42.1250 -86.5878 45° Northeast 154 177 7,000  Level Chicago Center
11:37PM 42.1561 -86.5461 45° Northeast 157 181 7,000  Level Chicago Center
11:38PM 42.1858 -86.5044 46° Northeast 155 178 7,000  Level Chicago Center
11:39PM 42.2175 -86.4608 46° Northeast 160 184 7,000  Level Chicago Center
11:40PM 42.2475 -86.4186 46° Northeast 157 181 7,000 -60 Level Chicago Center
11:41PM 42.2778 -86.3761 46° Northeast 157 181 6,900  Descending Chicago Center
11:42PM 42.3067 -86.3361 46° Northeast 158 182 7,000  Climbing Chicago Center
11:43PM 42.3372 -86.2961 44° Northeast 156 180 7,000  Level Chicago Center
11:44PM 42.3683 -86.2539 45° Northeast 157 181 7,000  Level Chicago Center
11:45PM 42.3992 -86.2114 46° Northeast 159 183 7,000  Level Chicago Center
11:46PM 42.4358 -86.1600 46° Northeast 159 183 7,000  Level Chicago Center
11:47PM 42.4678 -86.1167 45° Northeast 162 186 7,000  Level Chicago Center
11:48PM 42.4992 -86.0739 45° Northeast 162 186 7,000  Level Chicago Center
11:49PM 42.5317 -86.0319 44° Northeast 161 185 7,000  Level Chicago Center
11:50PM 42.5608 -85.9875 48° Northeast 160 184 7,000  Level Chicago Center
11:51PM 42.5919 -85.9436 46° Northeast 160 184 7,000  Level Chicago Center
11:52PM 42.6228 -85.8986 47° Northeast 163 188 7,000  Level Chicago Center
11:53PM 42.6531 -85.8561 46° Northeast 160 184 7,000 -600 Level Chicago Center
11:54PM 42.6869 -85.8108 44° Northeast 166 191 5,800 -1,320 Descending Chicago Center
11:55PM 42.7244 -85.7625 43° Northeast 180 207 4,400 -1,380 Descending Chicago Center
11:56PM 42.7642 -85.7142 42° Northeast 190 219 3,100 -1,080 Descending Chicago Center
11:57PM 42.7978 -85.6631 48° Northeast 186 214 2,300 -600 Descending Chicago Center
11:58PM 42.8275 -85.6189 47° Northeast 174 200 1,900 -360 Descending Chicago Center
11:59PM 42.8606 -85.5756 44° Northeast 154 177 1,600 -480 Descending Chicago Center
12:00AM 42.8786 -85.5481 48° Northeast 140 161 1,000 -600 Descending Chicago Center
12:02AM 42.8808 -85.5228 56° Northeast  Level Estimated
12:09AM 42.8808 -85.5228 56° Northeast  Level Estimated